Time;durP1;ratioP1;P1;durP2;ratioP2;P2;SDS_P1;SDS_P2;PMS_P1;PMS_P2;Temp;Humidity;BMP_temperature;BMP_pressure;BME280_temperature;BME280_humidity;BME280_pressure;Samples;Min_cycle;Max_cycle;Signal;HPM_P1;HPM_P2
2022/10/11 05:29:02;;;;;;;10.23;2.80;;;18.50;67.70;;;;;;7260575;23;20981;-79
2022/10/11 05:32:03;;;;;;;14.27;3.30;;;18.40;67.80;;;;;;6095782;29;20048;-80
2022/10/11 05:35:04;;;;;;;18.52;3.13;;;18.40;67.90;;;;;;6096657;29;20058;-78
2022/10/11 05:38:05;;;;;;;8.70;2.88;;;18.40;67.90;;;;;;6103097;29;20063;-79
2022/10/11 05:41:10;;;;;;;5.82;2.97;;;18.30;67.90;;;;;;6093335;29;20060;-76
2022/10/11 05:44:11;;;;;;;11.60;2.63;;;18.30;68.00;;;;;;6101539;29;20500;-78
2022/10/11 05:47:12;;;;;;;7.07;2.88;;;18.30;68.10;;;;;;6082319;29;20036;-77
2022/10/11 05:50:12;;;;;;;11.85;3.53;;;18.30;68.10;;;;;;6095210;29;20034;-79
2022/10/11 05:53:15;;;;;;;15.75;4.13;;;18.30;68.10;;;;;;6101255;29;20052;-79
2022/10/11 05:56:21;;;;;;;6.00;3.08;;;18.20;68.30;;;;;;6094504;29;20056;-78
2022/10/11 05:59:22;;;;;;;5.68;3.28;;;18.20;68.40;;;;;;6099044;29;20369;-79
2022/10/11 06:02:23;;;;;;;6.93;3.10;;;18.20;68.50;;;;;;6100777;29;20059;-80
2022/10/11 06:05:23;;;;;;;10.23;3.20;;;18.20;68.60;;;;;;6100820;29;20136;-80
2022/10/11 06:08:24;;;;;;;14.95;3.28;;;18.10;68.60;;;;;;6100888;29;20048;-80
2022/10/11 06:11:26;;;;;;;10.02;3.42;;;18.10;68.60;;;;;;6100327;29;20024;-79
2022/10/11 06:14:27;;;;;;;8.57;3.03;;;18.10;68.70;;;;;;6101928;29;20060;-80
2022/10/11 06:17:28;;;;;;;7.60;2.53;;;18.10;68.80;;;;;;6085728;29;20035;-80
2022/10/11 06:20:29;;;;;;;6.82;3.03;;;18.10;68.80;;;;;;6102976;29;20032;-80
2022/10/11 06:23:30;;;;;;;39.67;4.72;;;18.10;68.80;;;;;;6104733;29;20092;-79
2022/10/11 06:26:31;;;;;;;24.05;3.67;;;18.10;68.70;;;;;;6101492;29;20087;-80
2022/10/11 06:29:32;;;;;;;13.30;4.00;;;18.10;68.80;;;;;;6094264;29;20135;-80
2022/10/11 06:32:33;;;;;;;5.82;3.47;;;18.10;68.70;;;;;;6095540;29;20028;-80
2022/10/11 06:35:34;;;;;;;15.13;3.55;;;18.10;68.60;;;;;;6098806;29;20453;-80
2022/10/11 06:38:34;;;;;;;6.40;2.95;;;18.10;68.70;;;;;;6098758;29;20421;-80
2022/10/11 06:41:35;;;;;;;9.75;3.38;;;18.10;68.70;;;;;;6100284;29;20115;-81
2022/10/11 06:44:37;;;;;;;10.10;3.38;;;18.10;68.80;;;;;;6093202;29;20175;-80
2022/10/11 06:47:38;;;;;;;9.65;3.60;;;18.10;68.70;;;;;;6099322;29;20036;-78
2022/10/11 06:50:40;;;;;;;4.25;2.53;;;18.10;68.80;;;;;;6080891;29;20497;-80
2022/10/11 06:53:41;;;;;;;15.95;3.42;;;18.10;68.80;;;;;;6099314;29;20175;-80
2022/10/11 06:56:43;;;;;;;11.70;3.38;;;18.10;68.70;;;;;;6099850;29;20080;-80
2022/10/11 06:59:44;;;;;;;6.63;3.03;;;18.10;68.60;;;;;;6101148;29;20044;-82
2022/10/11 07:02:47;;;;;;;10.10;3.83;;;18.20;68.50;;;;;;6095071;29;20036;-81
2022/10/11 07:05:48;;;;;;;5.45;2.95;;;18.20;68.40;;;;;;6098923;29;20032;-81
2022/10/11 07:08:49;;;;;;;9.68;3.65;;;18.30;68.30;;;;;;6098476;29;20126;-80
2022/10/11 07:11:50;;;;;;;7.38;3.80;;;18.30;68.30;;;;;;6099606;29;20462;-81
2022/10/11 07:14:51;;;;;;;14.70;4.03;;;18.40;68.10;;;;;;6084305;29;20049;-81
2022/10/11 07:17:52;;;;;;;11.75;3.42;;;18.40;68.80;;;;;;6100048;29;20059;-80
2022/10/11 07:20:53;;;;;;;8.25;2.83;;;18.40;67.90;;;;;;6098587;29;20047;-80
2022/10/11 07:23:54;;;;;;;8.70;3.33;;;18.40;67.90;;;;;;6098588;29;20043;-81
2022/10/11 07:26:54;;;;;;;10.88;3.58;;;18.50;67.80;;;;;;6099708;29;20040;-79
2022/10/11 07:29:55;;;;;;;9.45;3.47;;;18.50;67.70;;;;;;6098609;29;20052;-80
2022/10/11 07:32:56;;;;;;;14.05;3.63;;;18.50;67.60;;;;;;6094049;29;20689;-80
2022/10/11 07:35:57;;;;;;;9.63;3.83;;;18.60;67.60;;;;;;6082696;29;20075;-80
2022/10/11 07:38:58;;;;;;;17.42;4.07;;;18.60;67.60;;;;;;6099142;29;20694;-80
2022/10/11 07:41:59;;;;;;;9.07;3.30;;;18.60;67.40;;;;;;6094986;29;20047;-80
2022/10/11 07:45:00;;;;;;;7.13;3.95;;;18.70;67.30;;;;;;6091836;29;20156;-80
2022/10/11 07:48:01;;;;;;;9.88;3.70;;;18.80;67.20;;;;;;6099612;29;20032;-80
2022/10/11 07:51:04;;;;;;;11.30;3.45;;;18.80;67.00;;;;;;6098025;29;20047;-79
2022/10/11 07:54:05;;;;;;;10.95;3.15;;;18.90;67.00;;;;;;6081968;29;20043;-82
2022/10/11 07:57:06;;;;;;;14.90;3.95;;;19.00;66.70;;;;;;6107726;29;20028;-79
2022/10/11 08:00:07;;;;;;;15.65;3.60;;;19.10;66.40;;;;;;6101145;29;20024;-79
2022/10/11 08:03:12;;;;;;;18.13;5.32;;;19.20;66.20;;;;;;6100103;29;20055;-80
2022/10/11 08:06:16;;;;;;;15.75;4.65;;;19.30;65.90;;;;;;6103307;29;20028;-79
2022/10/11 08:09:17;;;;;;;12.75;3.83;;;19.40;65.70;;;;;;6084747;29;20027;-80
2022/10/11 08:12:18;;;;;;;10.45;3.47;;;19.60;65.40;;;;;;6099587;29;20103;-80
2022/10/11 08:15:20;;;;;;;11.43;3.75;;;19.70;64.80;;;;;;6084249;29;20032;-81
2022/10/11 08:18:22;;;;;;;19.08;4.10;;;19.80;64.30;;;;;;6095576;29;20095;-81
2022/10/11 08:21:25;;;;;;;19.48;5.80;;;19.90;63.80;;;;;;6100630;29;20031;-81
2022/10/11 08:24:26;;;;;;;9.05;3.72;;;20.00;63.40;;;;;;6101184;29;20024;-80
2022/10/11 08:27:27;;;;;;;10.52;3.50;;;20.10;62.90;;;;;;6098924;29;20453;-80
2022/10/11 08:30:28;;;;;;;10.20;3.13;;;20.20;62.80;;;;;;6101355;29;20048;-80
2022/10/11 08:33:29;;;;;;;14.70;3.35;;;20.30;62.50;;;;;;6101527;29;20279;-80
2022/10/11 08:36:32;;;;;;;5.68;2.13;;;20.50;62.40;;;;;;6103300;29;20028;-80
2022/10/11 08:39:34;;;;;;;10.40;2.60;;;20.60;61.70;;;;;;6098931;29;20047;-79
2022/10/11 08:42:45;;;;;;;7.25;2.75;;;20.70;61.00;;;;;;6097806;29;20054;-79
2022/10/11 08:45:49;;;;;;;15.25;2.42;;;20.80;60.50;;;;;;6100578;29;20048;-78
2022/10/11 08:48:52;;;;;;;12.88;2.65;;;20.90;60.20;;;;;;6098970;29;20139;-81
2022/10/11 08:52:03;;;;;;;19.10;4.35;;;21.00;59.80;;;;;;6097311;29;20056;-81
2022/10/11 08:55:25;;;;;;;17.60;5.75;;;21.10;59.60;;;;;;6095231;29;20024;-81
2022/10/11 08:58:58;;;;;;;10.55;4.55;;;21.20;59.20;;;;;;6098517;29;20035;-82
2022/10/11 09:02:44;;;;;;;11.85;3.55;;;21.30;58.70;;;;;;6073709;29;20052;-80
2022/10/11 09:06:22;;;;;;;10.68;3.08;;;21.40;58.30;;;;;;6056660;29;20057;-80
2022/10/11 09:09:26;;;;;;;7.05;2.30;;;21.50;58.20;;;;;;6037004;29;20144;-80
2022/10/11 09:12:30;;;;;;;4.32;2.25;;;21.60;57.80;;;;;;6042222;29;20032;-81
2022/10/11 09:15:37;;;;;;;2.78;1.90;;;21.70;57.50;;;;;;6037735;29;20087;-80
2022/10/11 09:19:11;;;;;;;13.20;5.88;;;21.80;57.40;;;;;;6051475;29;20470;-80
2022/10/11 09:22:33;;;;;;;15.48;3.70;;;21.90;57.20;;;;;;6036411;29;20037;-80
2022/10/11 09:25:45;;;;;;;23.33;6.82;;;22.00;56.80;;;;;;6052150;29;20048;-80
2022/10/11 09:29:08;;;;;;;9.65;3.22;;;22.10;56.70;;;;;;6049674;29;20051;-78
2022/10/11 09:32:20;;;;;;;8.45;3.88;;;22.10;56.50;;;;;;6036707;29;20029;-79
2022/10/11 09:35:21;;;;;;;7.40;3.25;;;22.20;56.20;;;;;;6034681;29;20040;-79
2022/10/11 09:38:53;;;;;;;5.47;2.50;;;22.30;55.90;;;;;;6102405;29;20028;-79
2022/10/11 09:42:04;;;;;;;12.45;5.47;;;22.30;55.80;;;;;;6098732;29;20040;-78
2022/10/11 09:45:20;;;;;;;9.30;3.33;;;22.30;55.30;;;;;;6099396;29;21041;-80
2022/10/11 09:48:38;;;;;;;13.80;5.00;;;22.30;55.20;;;;;;6096827;29;20035;-81
2022/10/11 09:51:43;;;;;;;10.77;3.03;;;22.40;55.10;;;;;;6084439;29;20187;-79
2022/10/11 09:54:47;;;;;;;5.13;2.90;;;22.50;55.10;;;;;;6098604;29;20098;-79
2022/10/11 09:57:54;;;;;;;7.05;2.22;;;22.60;55.00;;;;;;6100114;29;20040;-78
2022/10/11 10:01:03;;;;;;;3.92;2.35;;;22.60;54.70;;;;;;6092024;29;20035;-79
2022/10/11 10:04:10;;;;;;;6.70;3.10;;;22.70;54.60;;;;;;6099658;29;20060;-79
2022/10/11 10:07:14;;;;;;;8.20;2.58;;;22.80;54.10;;;;;;6096652;29;20115;-78
2022/10/11 10:10:32;;;;;;;4.95;2.70;;;22.80;53.90;;;;;;6097261;29;20020;-79
2022/10/11 10:13:39;;;;;;;9.02;3.88;;;22.90;53.90;;;;;;6100396;29;20120;-80
2022/10/11 10:16:41;;;;;;;9.90;2.22;;;23.20;53.60;;;;;;6086082;29;20585;-80
2022/10/11 10:19:48;;;;;;;6.60;3.53;;;23.40;52.70;;;;;;6102167;29;20028;-79
2022/10/11 10:22:50;;;;;;;6.03;3.30;;;23.60;52.20;;;;;;6110523;29;20361;-80
2022/10/11 10:26:07;;;;;;;12.38;3.33;;;23.90;51.70;;;;;;6080347;29;20615;-79
2022/10/11 10:29:08;;;;;;;4.30;1.75;;;24.10;51.40;;;;;;6078325;29;20127;-80
2022/10/11 10:32:26;;;;;;;5.10;2.35;;;24.40;50.90;;;;;;6097979;29;20028;-80
2022/10/11 10:35:36;;;;;;;13.82;5.20;;;24.60;50.50;;;;;;6096435;29;20028;-81
2022/10/11 10:39:04;;;;;;;6.03;2.78;;;24.80;50.00;;;;;;6094586;29;20053;-81
2022/10/11 10:42:19;;;;;;;12.75;2.30;;;25.10;50.50;;;;;;6101120;29;20028;-82
2022/10/11 10:45:27;;;;;;;12.60;4.55;;;25.20;50.30;;;;;;6100035;29;20068;-80
2022/10/11 10:48:54;;;;;;;6.13;2.55;;;25.40;49.30;;;;;;6094206;29;20103;-83
2022/10/11 10:52:17;;;;;;;12.93;5.22;;;25.60;48.90;;;;;;6101227;29;20032;-80
2022/10/11 10:55:36;;;;;;;4.88;2.10;;;25.90;48.60;;;;;;6098474;29;20364;-82
2022/10/11 10:59:29;;;;;;;7.35;3.80;;;26.00;48.30;;;;;;6097443;29;20035;-82
2022/10/11 11:02:40;;;;;;;4.88;2.35;;;26.20;47.50;;;;;;5935256;30;20059;-81
2022/10/11 11:05:47;;;;;;;4.40;1.88;;;26.40;46.50;;;;;;5916440;30;20051;-82
2022/10/11 11:09:26;;;;;;;9.30;1.83;;;26.60;46.30;;;;;;5919848;30;20035;-81
2022/10/11 11:12:43;;;;;;;1.80;1.53;;;26.80;46.10;;;;;;5904543;30;20067;-80
2022/10/11 11:16:11;;;;;;;3.92;2.60;;;27.10;45.80;;;;;;5906770;30;20051;-81
2022/10/11 11:19:43;;;;;;;3.30;1.92;;;27.40;45.20;;;;;;5893886;30;20043;-81
2022/10/11 11:22:55;;;;;;;4.68;2.30;;;27.70;44.40;;;;;;5909714;30;20071;-76
2022/10/11 11:26:22;;;;;;;2.55;1.60;;;28.00;43.70;;;;;;5913419;30;20231;-76
2022/10/11 11:29:38;;;;;;;2.97;1.70;;;28.30;42.50;;;;;;5896519;30;20130;-77
2022/10/11 11:32:47;;;;;;;1.80;1.33;;;28.50;42.20;;;;;;5896548;30;20599;-75
2022/10/11 11:35:52;;;;;;;6.57;1.90;;;28.80;41.70;;;;;;5907829;30;20133;-76
2022/10/11 11:39:01;;;;;;;4.65;1.55;;;29.10;41.20;;;;;;5981880;29;20141;-76
2022/10/11 11:42:42;;;;;;;7.75;2.13;;;29.40;41.40;;;;;;6016882;29;20153;-76
2022/10/11 11:45:57;;;;;;;3.10;1.50;;;29.60;39.80;;;;;;6012502;29;20030;-75
2022/10/11 11:49:04;;;;;;;4.03;1.40;;;29.90;39.50;;;;;;6073755;29;20053;-76
2022/10/11 11:52:10;;;;;;;4.03;1.30;;;30.30;38.30;;;;;;6100953;29;20063;-76
2022/10/11 11:55:14;;;;;;;3.92;1.95;;;30.50;37.30;;;;;;6116618;29;20036;-75
2022/10/11 11:58:18;;;;;;;6.45;1.55;;;30.80;37.10;;;;;;6100869;29;20434;-77
2022/10/11 12:02:06;;;;;;;1.85;1.23;;;31.20;35.60;;;;;;6098789;29;20032;-77
2022/10/11 12:05:09;;;;;;;3.75;1.90;;;31.50;34.80;;;;;;6026535;29;20188;-75
2022/10/11 12:08:37;;;;;;;4.57;1.80;;;32.10;34.40;;;;;;6034308;29;20339;-76
2022/10/11 12:11:40;;;;;;;1.42;1.33;;;32.60;33.50;;;;;;6031004;29;20052;-75
2022/10/11 12:14:41;;;;;;;2.15;1.50;;;33.10;32.80;;;;;;6025662;29;20483;-76
2022/10/11 12:17:57;;;;;;;7.32;1.60;;;33.60;32.50;;;;;;6008970;29;20041;-75
2022/10/11 12:21:16;;;;;;;1.30;1.20;;;34.00;31.90;;;;;;5994223;29;20514;-75
2022/10/11 12:24:21;;;;;;;6.00;1.80;;;34.30;31.30;;;;;;6024401;29;20166;-76
2022/10/11 12:27:46;;;;;;;5.75;1.65;;;34.70;30.60;;;;;;6025573;29;20395;-75
2022/10/11 12:30:49;;;;;;;2.65;1.50;;;34.90;29.90;;;;;;6008829;29;20117;-75
2022/10/11 12:34:01;;;;;;;3.88;1.60;;;34.70;29.90;;;;;;6037052;29;20089;-74
2022/10/11 12:37:17;;;;;;;11.43;2.15;;;34.10;30.60;;;;;;6028581;29;20417;-75
2022/10/11 12:40:40;;;;;;;4.07;1.70;;;33.30;31.20;;;;;;6040584;29;20037;-74
2022/10/11 12:43:47;;;;;;;8.70;2.50;;;32.60;32.10;;;;;;6080368;29;20493;-75
2022/10/11 12:46:54;;;;;;;8.87;2.07;;;32.30;32.60;;;;;;6099877;29;20088;-75
2022/10/11 12:50:04;;;;;;;6.97;1.90;;;31.70;33.20;;;;;;6100644;29;20040;-75
2022/10/11 12:53:05;;;;;;;8.65;2.22;;;31.10;33.90;;;;;;6100583;29;20028;-75
2022/10/11 12:56:37;;;;;;;13.20;2.85;;;30.60;34.80;;;;;;6100204;29;20394;-75
2022/10/11 12:59:43;;;;;;;4.47;1.95;;;30.00;35.50;;;;;;6101310;29;20050;-76
2022/10/11 13:02:45;;;;;;;5.00;1.70;;;29.60;36.20;;;;;;6101053;29;20457;-75
2022/10/11 13:05:49;;;;;;;3.03;1.83;;;29.20;36.90;;;;;;6084748;29;20036;-75
2022/10/11 13:08:55;;;;;;;4.90;1.92;;;29.00;37.60;;;;;;6097519;29;20016;-77
2022/10/11 13:12:13;;;;;;;6.50;3.28;;;28.70;38.10;;;;;;6100980;29;20056;-75
2022/10/11 13:15:17;;;;;;;10.57;2.35;;;28.40;38.70;;;;;;6100801;29;20107;-74
2022/10/11 13:18:21;;;;;;;3.42;1.67;;;28.20;39.30;;;;;;6103059;29;20123;-74
2022/10/11 13:21:27;;;;;;;4.32;2.08;;;28.10;39.80;;;;;;6099010;29;20024;-76
2022/10/11 13:24:36;;;;;;;5.30;1.80;;;27.90;39.80;;;;;;6095870;29;20028;-76
2022/10/11 13:27:37;;;;;;;2.08;1.60;;;27.80;39.70;;;;;;6080630;29;20067;-75
2022/10/11 13:30:43;;;;;;;4.80;1.98;;;27.80;39.90;;;;;;6100345;29;20131;-74
2022/10/11 13:33:44;;;;;;;6.95;2.30;;;27.70;39.90;;;;;;6099318;29;20057;-74
2022/10/11 13:36:45;;;;;;;4.57;1.77;;;27.70;40.00;;;;;;6098967;29;20493;-74
2022/10/11 13:39:47;;;;;;;4.38;1.50;;;27.70;40.10;;;;;;6102583;29;20036;-74
2022/10/11 13:42:51;;;;;;;4.38;2.15;;;27.60;40.20;;;;;;6099727;29;20046;-75
2022/10/11 13:45:53;;;;;;;8.57;1.98;;;27.50;40.30;;;;;;6099348;29;20028;-75
2022/10/11 13:49:22;;;;;;;4.22;1.42;;;27.50;40.50;;;;;;6097218;29;20358;-75
2022/10/11 13:52:23;;;;;;;7.07;1.73;;;27.40;40.50;;;;;;6099995;29;20517;-74
2022/10/11 13:55:33;;;;;;;5.03;1.90;;;27.30;40.60;;;;;;6099580;29;20457;-75
2022/10/11 13:58:44;;;;;;;5.25;1.88;;;27.30;40.90;;;;;;6099488;29;20476;-75
2022/10/11 14:01:46;;;;;;;5.28;2.05;;;27.20;41.00;;;;;;6100641;29;20599;-75
2022/10/11 14:04:48;;;;;;;7.95;2.53;;;27.20;41.10;;;;;;6101822;29;20040;-75
2022/10/11 14:07:49;;;;;;;10.10;2.78;;;27.10;41.30;;;;;;6101094;29;20135;-74
2022/10/11 14:10:51;;;;;;;6.95;2.28;;;27.00;41.30;;;;;;6102377;29;20016;-74
2022/10/11 14:13:52;;;;;;;3.75;1.60;;;27.00;41.60;;;;;;6084629;29;20492;-74
2022/10/11 14:17:05;;;;;;;6.15;1.73;;;26.90;41.80;;;;;;6099964;29;20035;-75
2022/10/11 14:20:21;;;;;;;2.72;1.38;;;26.80;41.90;;;;;;6097525;29;20087;-74
2022/10/11 14:23:22;;;;;;;8.02;2.15;;;26.80;42.20;;;;;;6096455;29;20047;-75
2022/10/11 14:26:24;;;;;;;7.97;2.28;;;26.70;42.40;;;;;;6098211;29;20036;-75
2022/10/11 14:29:33;;;;;;;7.35;1.77;;;26.70;42.50;;;;;;6097729;29;20040;-73
2022/10/11 14:32:35;;;;;;;8.80;1.92;;;26.70;43.30;;;;;;6096282;29;20056;-75
2022/10/11 14:35:36;;;;;;;6.82;3.28;;;26.70;42.80;;;;;;6099215;29;20067;-75
2022/10/11 14:38:37;;;;;;;3.17;1.63;;;26.60;42.80;;;;;;6097317;29;20456;-75
2022/10/11 14:41:38;;;;;;;8.25;2.20;;;26.60;42.90;;;;;;6097515;29;20430;-75
2022/10/11 14:44:38;;;;;;;5.15;2.00;;;26.50;43.00;;;;;;6098724;29;20506;-74
2022/10/11 14:47:40;;;;;;;6.47;3.03;;;26.50;43.10;;;;;;6095558;29;20102;-76
2022/10/11 14:50:57;;;;;;;7.72;2.40;;;26.40;43.30;;;;;;6097456;29;20040;-73
2022/10/11 14:53:57;;;;;;;7.40;2.00;;;26.30;43.50;;;;;;6092509;29;20040;-75
2022/10/11 14:57:01;;;;;;;7.20;2.63;;;26.30;43.70;;;;;;6099885;29;20468;-75
2022/10/11 15:00:13;;;;;;;5.43;1.88;;;26.30;43.80;;;;;;6082604;29;20035;-74
2022/10/11 15:03:14;;;;;;;9.57;2.50;;;26.20;43.90;;;;;;6097083;29;20036;-75
2022/10/11 15:06:19;;;;;;;5.47;2.10;;;26.30;44.60;;;;;;6099702;29;20031;-74
2022/10/11 15:09:21;;;;;;;6.47;2.80;;;26.20;44.10;;;;;;6096342;29;20028;-75
2022/10/11 15:12:22;;;;;;;7.43;2.53;;;26.20;44.20;;;;;;6097333;29;20426;-74
2022/10/11 15:15:25;;;;;;;4.35;1.80;;;26.20;44.20;;;;;;6095598;29;20044;-75
2022/10/11 15:18:26;;;;;;;11.05;2.70;;;26.10;44.30;;;;;;6094212;29;20111;-76
2022/10/11 15:21:28;;;;;;;6.70;2.10;;;26.10;44.40;;;;;;6099115;29;20087;-75
2022/10/11 15:24:29;;;;;;;7.88;2.70;;;26.00;44.60;;;;;;6097793;29;20036;-75
2022/10/11 15:27:30;;;;;;;8.13;2.50;;;26.00;44.60;;;;;;6097785;29;20032;-74
2022/10/11 15:30:34;;;;;;;13.18;2.95;;;26.00;44.60;;;;;;6101427;29;20039;-76
2022/10/11 15:33:35;;;;;;;6.85;2.38;;;25.90;44.80;;;;;;6091601;29;20036;-75
2022/10/11 15:36:36;;;;;;;12.45;3.00;;;25.90;44.90;;;;;;6097133;29;20040;-75
2022/10/11 15:39:37;;;;;;;9.30;2.42;;;25.80;45.00;;;;;;6095925;29;20365;-74
2022/10/11 15:42:38;;;;;;;3.08;2.13;;;25.80;45.20;;;;;;6094809;29;20087;-75
2022/10/11 15:45:39;;;;;;;11.85;2.78;;;25.70;45.50;;;;;;6097294;29;20443;-76
2022/10/11 15:48:40;;;;;;;7.63;2.55;;;25.60;45.70;;;;;;6096523;29;20505;-76
2022/10/11 15:51:42;;;;;;;7.90;2.00;;;25.60;46.00;;;;;;6098173;29;20087;-74
2022/10/11 15:54:42;;;;;;;11.52;2.47;;;25.50;46.20;;;;;;6097061;29;20058;-73
2022/10/11 15:57:43;;;;;;;10.15;2.72;;;25.50;46.40;;;;;;6096455;29;20032;-74
2022/10/11 16:00:46;;;;;;;8.30;3.03;;;25.40;46.50;;;;;;6080228;29;20043;-74
2022/10/11 16:03:49;;;;;;;5.95;2.67;;;25.30;46.80;;;;;;6098147;29;20047;-75
2022/10/11 16:06:50;;;;;;;8.77;3.03;;;25.20;47.00;;;;;;6097057;29;20055;-75
2022/10/11 16:09:51;;;;;;;8.23;2.53;;;25.10;47.20;;;;;;6101012;29;20032;-75
2022/10/11 16:12:52;;;;;;;3.78;2.10;;;25.10;47.30;;;;;;6102605;29;20063;-74
2022/10/11 16:15:52;;;;;;;3.63;2.38;;;25.00;47.50;;;;;;6083915;29;20513;-76
2022/10/11 16:18:53;;;;;;;11.25;2.72;;;25.00;47.60;;;;;;6100780;29;20028;-74
2022/10/11 16:21:54;;;;;;;4.70;2.45;;;24.90;47.60;;;;;;6100802;29;20036;-74
2022/10/11 16:24:55;;;;;;;11.38;2.90;;;24.90;47.80;;;;;;6101180;29;20145;-74
2022/10/11 16:27:56;;;;;;;11.45;2.80;;;24.90;47.90;;;;;;6100289;29;20099;-75
2022/10/11 16:30:57;;;;;;;6.47;2.55;;;24.80;48.00;;;;;;6080923;29;20040;-75
2022/10/11 16:33:58;;;;;;;7.55;2.67;;;24.80;48.10;;;;;;6078852;29;20123;-74
2022/10/11 16:36:59;;;;;;;5.47;2.60;;;24.70;48.20;;;;;;6085162;29;20043;-75
2022/10/11 16:40:00;;;;;;;15.63;3.00;;;24.70;48.30;;;;;;6100043;29;20033;-75
2022/10/11 16:43:02;;;;;;;9.10;2.92;;;24.70;48.40;;;;;;6096092;29;20139;-75
2022/10/11 16:46:03;;;;;;;6.22;2.83;;;24.70;48.60;;;;;;6103354;29;20047;-75
2022/10/11 16:49:05;;;;;;;5.35;2.92;;;24.60;48.70;;;;;;6099842;29;20036;-75
2022/10/11 16:52:09;;;;;;;8.95;3.55;;;24.50;48.90;;;;;;6102366;29;20481;-74
2022/10/11 16:55:10;;;;;;;7.88;3.13;;;24.50;49.10;;;;;;6101971;29;20079;-74
2022/10/11 16:58:11;;;;;;;12.20;3.80;;;24.40;49.20;;;;;;6102364;29;20116;-74
2022/10/11 17:01:12;;;;;;;5.80;3.25;;;24.40;49.50;;;;;;6097444;29;20035;-74
2022/10/11 17:04:14;;;;;;;14.52;3.85;;;24.30;49.80;;;;;;6098795;29;20028;-74
2022/10/11 17:07:14;;;;;;;6.53;3.67;;;24.30;50.00;;;;;;6098319;29;20338;-75
2022/10/11 17:10:15;;;;;;;7.32;3.88;;;24.20;50.20;;;;;;6098857;29;20099;-71
2022/10/11 17:13:16;;;;;;;9.82;3.42;;;24.10;50.40;;;;;;6094829;29;20573;-72
2022/10/11 17:16:17;;;;;;;7.22;3.38;;;24.10;50.60;;;;;;6101811;29;20035;-71
2022/10/11 17:19:18;;;;;;;11.38;3.25;;;24.00;50.80;;;;;;6101470;29;20028;-73
2022/10/11 17:22:19;;;;;;;6.47;3.00;;;24.00;51.00;;;;;;6099951;29;20101;-73
2022/10/11 17:25:20;;;;;;;16.20;3.50;;;23.90;51.10;;;;;;6098375;29;20032;-74
2022/10/11 17:28:21;;;;;;;6.78;3.50;;;23.90;51.30;;;;;;6099830;29;20097;-74
2022/10/11 17:31:23;;;;;;;9.38;4.13;;;23.80;51.50;;;;;;6078424;29;20066;-73
2022/10/11 17:34:24;;;;;;;9.93;4.13;;;23.80;51.60;;;;;;6095668;29;20493;-73
2022/10/11 17:37:25;;;;;;;7.05;3.22;;;23.70;51.60;;;;;;6100105;29;20565;-74
2022/10/11 17:40:26;;;;;;;9.02;3.05;;;23.60;51.80;;;;;;6083790;29;20032;-74
2022/10/11 17:43:27;;;;;;;8.40;3.25;;;23.60;51.90;;;;;;6101135;29;20630;-73
2022/10/11 17:46:31;;;;;;;8.23;3.05;;;23.50;52.00;;;;;;6100726;29;20035;-73
2022/10/11 17:49:32;;;;;;;8.85;3.85;;;23.50;52.10;;;;;;6097230;29;20048;-73
2022/10/11 17:52:33;;;;;;;7.53;3.05;;;23.50;52.20;;;;;;6085936;29;20156;-75
2022/10/11 17:55:40;;;;;;;10.85;3.15;;;23.40;52.40;;;;;;6100493;29;20032;-73
2022/10/11 17:58:42;;;;;;;7.10;3.55;;;23.40;52.60;;;;;;6099183;29;20183;-73
2022/10/11 18:01:43;;;;;;;10.13;3.40;;;23.30;52.70;;;;;;6084371;29;20051;-74
2022/10/11 18:04:44;;;;;;;11.60;3.90;;;23.20;52.90;;;;;;6099158;29;20493;-74
2022/10/11 18:07:45;;;;;;;7.20;3.65;;;23.20;53.10;;;;;;6096975;29;20056;-74
2022/10/11 18:10:46;;;;;;;6.80;3.53;;;23.10;53.20;;;;;;6099504;29;20444;-75
2022/10/11 18:13:48;;;;;;;7.75;3.40;;;23.10;53.40;;;;;;6100565;29;20024;-72
2022/10/11 18:16:49;;;;;;;9.57;3.45;;;23.10;53.70;;;;;;6099539;29;20110;-73
2022/10/11 18:19:50;;;;;;;9.25;3.28;;;23.00;53.70;;;;;;6099682;29;20397;-73
2022/10/11 18:22:54;;;;;;;9.45;2.92;;;23.00;53.70;;;;;;6100345;29;20036;-74
2022/10/11 18:25:55;;;;;;;6.22;3.35;;;23.00;53.80;;;;;;6097615;29;20059;-74
2022/10/11 18:28:57;;;;;;;10.65;3.58;;;22.90;53.80;;;;;;6098580;29;20409;-74
2022/10/11 18:31:57;;;;;;;7.93;3.30;;;22.90;54.00;;;;;;6091479;29;20606;-74
2022/10/11 18:34:58;;;;;;;10.02;4.15;;;22.80;54.10;;;;;;6097733;29;20055;-74
2022/10/11 18:37:59;;;;;;;12.50;2.97;;;22.70;54.20;;;;;;6096138;29;20381;-74
2022/10/11 18:41:08;;;;;;;10.13;3.50;;;22.70;54.50;;;;;;6093510;29;20584;-74
2022/10/11 18:44:12;;;;;;;10.48;3.85;;;22.60;54.80;;;;;;6097861;29;20043;-75
2022/10/11 18:47:13;;;;;;;8.73;3.28;;;22.60;55.00;;;;;;6098862;29;20580;-76
2022/10/11 18:50:14;;;;;;;12.98;3.55;;;22.50;54.90;;;;;;6082027;29;20035;-75
2022/10/11 18:53:15;;;;;;;7.13;3.22;;;22.50;54.90;;;;;;6098988;29;20124;-76
2022/10/11 18:56:21;;;;;;;10.20;3.88;;;22.60;55.10;;;;;;6099604;29;20032;-75
2022/10/11 18:59:22;;;;;;;11.60;3.80;;;22.40;55.10;;;;;;6098029;29;20063;-75
2022/10/11 19:02:22;;;;;;;11.50;4.72;;;22.40;55.30;;;;;;6099219;29;20028;-75
2022/10/11 19:05:23;;;;;;;13.88;3.85;;;22.30;55.40;;;;;;6090657;29;20032;-74
2022/10/11 19:08:24;;;;;;;9.85;3.63;;;22.30;55.50;;;;;;6102447;29;20036;-74
2022/10/11 19:11:26;;;;;;;11.25;3.42;;;22.20;55.70;;;;;;6082389;29;20070;-74
2022/10/11 19:14:29;;;;;;;9.23;3.63;;;22.20;55.80;;;;;;6099220;29;20024;-74
2022/10/11 19:17:29;;;;;;;12.43;4.28;;;22.10;55.80;;;;;;6097359;29;20036;-75
2022/10/11 19:20:33;;;;;;;9.73;3.75;;;22.20;55.90;;;;;;6095799;29;20386;-75
2022/10/11 19:23:42;;;;;;;10.00;3.63;;;22.20;55.90;;;;;;6093738;29;20044;-74
2022/10/11 19:26:43;;;;;;;11.65;3.38;;;22.10;55.80;;;;;;6078153;29;20028;-75
2022/10/11 19:29:44;;;;;;;5.38;3.63;;;22.10;55.80;;;;;;6082199;29;20063;-75
2022/10/11 19:32:45;;;;;;;7.60;3.38;;;22.10;55.80;;;;;;6095500;29;20115;-73
2022/10/11 19:35:56;;;;;;;5.90;3.60;;;22.10;55.90;;;;;;6095622;29;20047;-74
2022/10/11 19:38:57;;;;;;;7.07;3.53;;;22.10;56.00;;;;;;6097601;29;20374;-74
2022/10/11 19:41:59;;;;;;;7.90;3.42;;;22.10;56.00;;;;;;6097493;29;20032;-74
2022/10/11 19:45:00;;;;;;;8.70;4.18;;;22.10;56.10;;;;;;6082698;29;20309;-74
2022/10/11 19:48:00;;;;;;;8.13;3.13;;;22.10;56.10;;;;;;6103112;29;20046;-74
2022/10/11 19:51:04;;;;;;;10.75;3.67;;;22.00;56.10;;;;;;6102852;29;20035;-74
2022/10/11 19:54:07;;;;;;;11.52;4.00;;;22.00;56.10;;;;;;6102463;29;20056;-74
2022/10/11 19:57:08;;;;;;;9.68;4.30;;;22.00;56.20;;;;;;6102389;29;20089;-73
2022/10/11 20:00:09;;;;;;;13.27;4.57;;;22.00;56.20;;;;;;6102337;29;20363;-74
2022/10/11 20:03:10;;;;;;;14.10;5.05;;;22.10;56.40;;;;;;6103636;29;20095;-74
2022/10/11 20:06:12;;;;;;;8.20;4.78;;;22.00;56.40;;;;;;6102200;29;20054;-74
2022/10/11 20:09:13;;;;;;;9.27;4.28;;;22.00;56.60;;;;;;6102485;29;20067;-74
2022/10/11 20:12:13;;;;;;;8.10;4.45;;;21.90;56.50;;;;;;6097284;29;20025;-74
2022/10/11 20:15:14;;;;;;;12.05;3.88;;;21.90;56.60;;;;;;6099617;29;20477;-73
2022/10/11 20:18:16;;;;;;;9.60;4.25;;;21.90;56.70;;;;;;6101243;29;20156;-73
2022/10/11 20:21:22;;;;;;;13.30;4.45;;;21.80;56.80;;;;;;6097279;29;20032;-73
2022/10/11 20:24:23;;;;;;;12.68;4.63;;;21.80;56.90;;;;;;6100524;29;20024;-74
2022/10/11 20:27:24;;;;;;;10.18;4.20;;;21.80;56.90;;;;;;6103386;29;20032;-74
2022/10/11 20:30:24;;;;;;;9.35;4.90;;;21.80;56.90;;;;;;6101200;29;20477;-76
2022/10/11 20:33:29;;;;;;;12.13;4.80;;;21.90;56.90;;;;;;6099570;29;20460;-76
2022/10/11 20:36:31;;;;;;;7.57;4.35;;;21.90;56.90;;;;;;6099777;29;20031;-76
2022/10/11 20:39:32;;;;;;;9.73;4.40;;;21.80;56.90;;;;;;6100764;29;20028;-76
2022/10/11 20:42:33;;;;;;;8.00;4.07;;;21.90;56.90;;;;;;6102391;29;20028;-76
2022/10/11 20:45:34;;;;;;;11.80;4.55;;;21.90;57.00;;;;;;6102532;29;20047;-76
2022/10/11 20:48:39;;;;;;;10.10;3.88;;;21.90;57.00;;;;;;6100515;29;20043;-78
2022/10/11 20:51:41;;;;;;;9.25;4.07;;;21.90;57.00;;;;;;6082794;29;20032;-77
2022/10/11 20:54:42;;;;;;;7.43;4.47;;;21.90;57.00;;;;;;6098957;29;20052;-76
2022/10/11 20:57:42;;;;;;;9.02;3.75;;;21.90;57.00;;;;;;6100308;29;20027;-77
2022/10/11 21:00:44;;;;;;;9.73;4.40;;;21.90;57.00;;;;;;6101695;29;20114;-77
2022/10/11 21:03:45;;;;;;;14.95;3.53;;;21.90;57.10;;;;;;6103513;29;20036;-76
2022/10/11 21:06:47;;;;;;;11.20;3.45;;;21.90;57.10;;;;;;6103352;29;20032;-76
2022/10/11 21:09:48;;;;;;;6.05;3.50;;;21.80;57.20;;;;;;6102321;29;20084;-76
2022/10/11 21:12:49;;;;;;;8.00;3.65;;;21.70;57.20;;;;;;6100290;29;20036;-76
2022/10/11 21:15:50;;;;;;;9.68;4.95;;;21.70;57.20;;;;;;6096363;29;20067;-75
2022/10/11 21:18:52;;;;;;;12.57;4.15;;;21.70;57.30;;;;;;6099856;29;20047;-76
2022/10/11 21:21:53;;;;;;;6.57;3.65;;;21.70;57.40;;;;;;6098402;29;20133;-76
2022/10/11 21:24:55;;;;;;;14.13;3.33;;;21.60;57.40;;;;;;6098778;29;20508;-76
2022/10/11 21:27:56;;;;;;;8.48;3.17;;;21.60;57.50;;;;;;6095177;29;20114;-77